sensor_id;sensor_type;location;lat;lon;timestamp;pressure;altitude;pressure_sealevel;temperature;humidity
13869;BME280;7004;48.206;16.402;2023-02-10T00:01:32;101656.81;;;-1.04;57.28
13869;BME280;7004;48.206;16.402;2023-02-10T00:03:58;101651.63;;;-1.04;57.21
13869;BME280;7004;48.206;16.402;2023-02-10T00:06:26;101651.66;;;-1.03;57.32
13869;BME280;7004;48.206;16.402;2023-02-10T00:08:56;101649.72;;;-1.16;57.84
13869;BME280;7004;48.206;16.402;2023-02-10T00:11:25;101652.44;;;-1.08;57.46
13869;BME280;7004;48.206;16.402;2023-02-10T00:14:11;101652.59;;;-0.96;57.40
13869;BME280;7004;48.206;16.402;2023-02-10T00:16:38;101654.22;;;-1.04;57.44
13869;BME280;7004;48.206;16.402;2023-02-10T00:19:05;101652.63;;;-0.95;57.44
13869;BME280;7004;48.206;16.402;2023-02-10T00:21:31;101656.13;;;-0.91;57.48
13869;BME280;7004;48.206;16.402;2023-02-10T00:23:57;101658.78;;;-0.90;57.95
13869;BME280;7004;48.206;16.402;2023-02-10T00:26:23;101650.69;;;-1.10;57.84
13869;BME280;7004;48.206;16.402;2023-02-10T00:28:49;101650.72;;;-1.06;57.92
13869;BME280;7004;48.206;16.402;2023-02-10T00:31:16;101653.16;;;-1.17;58.25
13869;BME280;7004;48.206;16.402;2023-02-10T00:33:47;101648.59;;;-1.34;58.51
13869;BME280;7004;48.206;16.402;2023-02-10T00:36:15;101652.09;;;-1.32;58.71
13869;BME280;7004;48.206;16.402;2023-02-10T00:38:42;101652.09;;;-1.32;59.32
13869;BME280;7004;48.206;16.402;2023-02-10T00:41:11;101659.63;;;-1.45;59.87
13869;BME280;7004;48.206;16.402;2023-02-10T00:43:38;101651.53;;;-1.65;60.07
13869;BME280;7004;48.206;16.402;2023-02-10T00:46:08;101657.53;;;-1.66;60.60
13869;BME280;7004;48.206;16.402;2023-02-10T00:48:35;101658.97;;;-1.82;61.25
13869;BME280;7004;48.206;16.402;2023-02-10T00:51:02;101654.88;;;-1.71;61.03
13869;BME280;7004;48.206;16.402;2023-02-10T00:53:29;101654.22;;;-1.59;60.50
13869;BME280;7004;48.206;16.402;2023-02-10T00:55:55;101652.78;;;-1.42;59.71
13869;BME280;7004;48.206;16.402;2023-02-10T00:58:21;101652.19;;;-1.76;60.92
13869;BME280;7004;48.206;16.402;2023-02-10T01:00:48;101654.91;;;-1.69;60.40
13869;BME280;7004;48.206;16.402;2023-02-10T01:03:15;101656.56;;;-1.71;61.03
13869;BME280;7004;48.206;16.402;2023-02-10T01:05:42;101660.94;;;-1.69;60.41
13869;BME280;7004;48.206;16.402;2023-02-10T01:08:08;101668.53;;;-1.81;60.51
13869;BME280;7004;48.206;16.402;2023-02-10T01:10:34;101664.78;;;-1.97;61.58
13869;BME280;7004;48.206;16.402;2023-02-10T01:13:02;101663.09;;;-1.93;62.10
13869;BME280;7004;48.206;16.402;2023-02-10T01:15:29;101662.16;;;-1.99;62.12
13869;BME280;7004;48.206;16.402;2023-02-10T01:17:55;101664.03;;;-1.91;61.68
13869;BME280;7004;48.206;16.402;2023-02-10T01:20:22;101654.56;;;-1.88;61.34
13869;BME280;7004;48.206;16.402;2023-02-10T01:22:48;101659.03;;;-1.81;60.89
13869;BME280;7004;48.206;16.402;2023-02-10T01:25:14;101646.28;;;-1.67;60.35
13869;BME280;7004;48.206;16.402;2023-02-10T01:27:40;101656.09;;;-1.50;59.93
13869;BME280;7004;48.206;16.402;2023-02-10T01:30:07;101645.94;;;-1.87;61.22
13869;BME280;7004;48.206;16.402;2023-02-10T01:32:34;101647.94;;;-1.72;61.50
13869;BME280;7004;48.206;16.402;2023-02-10T01:35:00;101654.53;;;-1.91;61.55
13869;BME280;7004;48.206;16.402;2023-02-10T01:37:26;101658.25;;;-1.75;61.87
13869;BME280;7004;48.206;16.402;2023-02-10T01:39:52;101652.38;;;-1.65;61.39
13869;BME280;7004;48.206;16.402;2023-02-10T01:42:18;101647.19;;;-1.65;61.21
13869;BME280;7004;48.206;16.402;2023-02-10T01:47:11;101654.03;;;-1.70;61.66
13869;BME280;7004;48.206;16.402;2023-02-10T01:49:47;101652.13;;;-2.26;62.16
13869;BME280;7004;48.206;16.402;2023-02-10T01:52:20;101655.50;;;-2.30;63.39
13869;BME280;7004;48.206;16.402;2023-02-10T01:55:04;101647.06;;;-2.20;63.01
13869;BME280;7004;48.206;16.402;2023-02-10T01:57:31;101644.19;;;-1.89;62.30
13869;BME280;7004;48.206;16.402;2023-02-10T02:00:00;101639.47;;;-1.62;61.65
13869;BME280;7004;48.206;16.402;2023-02-10T02:02:27;101642.06;;;-1.62;61.54
13869;BME280;7004;48.206;16.402;2023-02-10T02:04:59;101639.06;;;-1.86;62.88
13869;BME280;7004;48.206;16.402;2023-02-10T02:07:29;101637.91;;;-2.02;63.00
13869;BME280;7004;48.206;16.402;2023-02-10T02:10:00;101637.63;;;-2.17;62.84
13869;BME280;7004;48.206;16.402;2023-02-10T02:12:57;101631.97;;;-2.40;63.33
13869;BME280;7004;48.206;16.402;2023-02-10T02:15:54;101627.44;;;-2.07;62.94
13869;BME280;7004;48.206;16.402;2023-02-10T02:21:08;101622.06;;;-2.17;62.56
13869;BME280;7004;48.206;16.402;2023-02-10T02:36:21;101632.69;;;-2.04;62.58
13869;BME280;7004;48.206;16.402;2023-02-10T02:38:49;101632.28;;;-1.78;62.06
13869;BME280;7004;48.206;16.402;2023-02-10T02:41:26;101638.09;;;-1.91;62.30
13869;BME280;7004;48.206;16.402;2023-02-10T02:43:53;101634.47;;;-2.01;62.60
13869;BME280;7004;48.206;16.402;2023-02-10T02:46:55;101640.19;;;-2.17;63.07
13869;BME280;7004;48.206;16.402;2023-02-10T02:52:43;101639.09;;;-2.30;62.92
13869;BME280;7004;48.206;16.402;2023-02-10T02:58:08;101643.63;;;-2.61;64.64
13869;BME280;7004;48.206;16.402;2023-02-10T03:00:38;101647.56;;;-2.37;63.92
13869;BME280;7004;48.206;16.402;2023-02-10T03:03:08;101653.78;;;-2.29;63.46
13869;BME280;7004;48.206;16.402;2023-02-10T03:05:34;101658.91;;;-2.32;63.83
13869;BME280;7004;48.206;16.402;2023-02-10T03:08:01;101663.38;;;-2.24;63.60
13869;BME280;7004;48.206;16.402;2023-02-10T03:10:27;101668.72;;;-2.16;63.49
13869;BME280;7004;48.206;16.402;2023-02-10T03:12:53;101656.47;;;-2.25;63.78
13869;BME280;7004;48.206;16.402;2023-02-10T03:15:20;101671.91;;;-2.29;63.24
13869;BME280;7004;48.206;16.402;2023-02-10T03:17:47;101674.03;;;-2.52;64.74
13869;BME280;7004;48.206;16.402;2023-02-10T03:20:15;101671.00;;;-2.33;64.08
13869;BME280;7004;48.206;16.402;2023-02-10T03:22:44;101665.16;;;-2.21;63.79
13869;BME280;7004;48.206;16.402;2023-02-10T03:25:10;101671.16;;;-2.24;63.56
13869;BME280;7004;48.206;16.402;2023-02-10T03:27:37;101671.00;;;-2.31;63.76
13869;BME280;7004;48.206;16.402;2023-02-10T03:30:03;101671.63;;;-2.43;64.30
13869;BME280;7004;48.206;16.402;2023-02-10T03:32:29;101673.38;;;-2.42;64.32
13869;BME280;7004;48.206;16.402;2023-02-10T03:34:55;101674.44;;;-2.32;63.68
13869;BME280;7004;48.206;16.402;2023-02-10T03:37:21;101678.03;;;-2.26;63.60
13869;BME280;7004;48.206;16.402;2023-02-10T03:39:47;101676.28;;;-2.28;64.03
13869;BME280;7004;48.206;16.402;2023-02-10T03:42:13;101681.47;;;-2.27;64.15
13869;BME280;7004;48.206;16.402;2023-02-10T03:44:40;101682.25;;;-2.31;64.50
13869;BME280;7004;48.206;16.402;2023-02-10T03:47:06;101679.63;;;-2.32;64.90
13869;BME280;7004;48.206;16.402;2023-02-10T03:49:32;101677.75;;;-2.39;64.66
13869;BME280;7004;48.206;16.402;2023-02-10T03:51:58;101686.91;;;-2.14;64.22
13869;BME280;7004;48.206;16.402;2023-02-10T03:54:24;101693.13;;;-2.47;65.59
13869;BME280;7004;48.206;16.402;2023-02-10T03:56:50;101697.84;;;-2.69;65.26
13869;BME280;7004;48.206;16.402;2023-02-10T03:59:16;101696.88;;;-2.74;66.54
13869;BME280;7004;48.206;16.402;2023-02-10T04:01:42;101695.94;;;-2.76;66.03
13869;BME280;7004;48.206;16.402;2023-02-10T04:04:11;101693.75;;;-2.57;66.91
13869;BME280;7004;48.206;16.402;2023-02-10T04:06:40;101683.34;;;-2.62;66.10
13869;BME280;7004;48.206;16.402;2023-02-10T04:09:08;101689.44;;;-2.58;66.07
13869;BME280;7004;48.206;16.402;2023-02-10T04:11:40;101686.63;;;-2.68;67.10
13869;BME280;7004;48.206;16.402;2023-02-10T04:14:11;101687.38;;;-2.75;66.74
13869;BME280;7004;48.206;16.402;2023-02-10T04:16:40;101692.09;;;-3.30;68.30
13869;BME280;7004;48.206;16.402;2023-02-10T04:19:08;101688.63;;;-2.94;68.02
13869;BME280;7004;48.206;16.402;2023-02-10T04:21:36;101686.03;;;-2.94;67.72
13869;BME280;7004;48.206;16.402;2023-02-10T04:24:11;101691.03;;;-3.03;68.52
13869;BME280;7004;48.206;16.402;2023-02-10T04:26:40;101686.56;;;-2.71;68.16
13869;BME280;7004;48.206;16.402;2023-02-10T04:29:11;101688.16;;;-2.77;68.17
13869;BME280;7004;48.206;16.402;2023-02-10T04:31:45;101688.19;;;-2.76;67.61
13869;BME280;7004;48.206;16.402;2023-02-10T04:34:12;101692.44;;;-2.79;67.75
13869;BME280;7004;48.206;16.402;2023-02-10T04:36:38;101698.34;;;-2.83;67.93
13869;BME280;7004;48.206;16.402;2023-02-10T04:39:04;101699.03;;;-2.92;68.01
13869;BME280;7004;48.206;16.402;2023-02-10T04:41:32;101696.19;;;-3.03;68.57
13869;BME280;7004;48.206;16.402;2023-02-10T04:43:59;101698.13;;;-2.94;68.40
13869;BME280;7004;48.206;16.402;2023-02-10T04:46:25;101704.91;;;-2.99;69.10
13869;BME280;7004;48.206;16.402;2023-02-10T04:48:53;101702.00;;;-3.13;69.08
13869;BME280;7004;48.206;16.402;2023-02-10T04:51:19;101702.19;;;-3.04;68.89
13869;BME280;7004;48.206;16.402;2023-02-10T04:53:46;101709.81;;;-3.10;69.30
13869;BME280;7004;48.206;16.402;2023-02-10T04:56:15;101699.66;;;-3.02;69.28
13869;BME280;7004;48.206;16.402;2023-02-10T04:58:43;101697.75;;;-3.10;69.75
13869;BME280;7004;48.206;16.402;2023-02-10T05:01:09;101709.50;;;-3.22;69.96
13869;BME280;7004;48.206;16.402;2023-02-10T05:03:36;101709.56;;;-3.21;70.21
13869;BME280;7004;48.206;16.402;2023-02-10T05:06:13;101708.41;;;-2.96;69.44
13869;BME280;7004;48.206;16.402;2023-02-10T05:08:40;101716.84;;;-2.68;68.21
13869;BME280;7004;48.206;16.402;2023-02-10T05:11:09;101715.03;;;-2.72;69.08
13869;BME280;7004;48.206;16.402;2023-02-10T05:13:36;101719.25;;;-2.76;68.73
13869;BME280;7004;48.206;16.402;2023-02-10T05:16:03;101724.81;;;-2.97;69.03
13869;BME280;7004;48.206;16.402;2023-02-10T05:18:34;101711.09;;;-2.93;69.36
13869;BME280;7004;48.206;16.402;2023-02-10T05:21:01;101720.44;;;-2.99;69.58
13869;BME280;7004;48.206;16.402;2023-02-10T05:23:29;101724.81;;;-2.97;69.66
13869;BME280;7004;48.206;16.402;2023-02-10T05:25:56;101733.41;;;-3.33;70.85
13869;BME280;7004;48.206;16.402;2023-02-10T05:28:23;101737.16;;;-3.20;70.72
13869;BME280;7004;48.206;16.402;2023-02-10T05:30:49;101740.97;;;-3.40;71.67
13869;BME280;7004;48.206;16.402;2023-02-10T05:33:16;101736.03;;;-3.31;71.50
13869;BME280;7004;48.206;16.402;2023-02-10T05:35:42;101733.19;;;-3.07;70.65
13869;BME280;7004;48.206;16.402;2023-02-10T05:38:08;101744.31;;;-3.10;70.69
13869;BME280;7004;48.206;16.402;2023-02-10T05:40:35;101742.03;;;-3.32;71.28
13869;BME280;7004;48.206;16.402;2023-02-10T05:43:02;101744.44;;;-3.40;71.54
13869;BME280;7004;48.206;16.402;2023-02-10T05:45:28;101743.72;;;-3.34;71.43
13869;BME280;7004;48.206;16.402;2023-02-10T05:47:55;101746.47;;;-3.28;71.75
13869;BME280;7004;48.206;16.402;2023-02-10T05:50:21;101745.53;;;-3.63;72.51
13869;BME280;7004;48.206;16.402;2023-02-10T05:52:48;101749.41;;;-3.47;72.96
13869;BME280;7004;48.206;16.402;2023-02-10T05:55:14;101749.00;;;-3.30;72.04
13869;BME280;7004;48.206;16.402;2023-02-10T05:57:40;101753.63;;;-3.18;71.94
13869;BME280;7004;48.206;16.402;2023-02-10T06:00:08;101754.00;;;-3.37;71.60
13869;BME280;7004;48.206;16.402;2023-02-10T06:02:35;101767.69;;;-3.73;72.87
13869;BME280;7004;48.206;16.402;2023-02-10T06:05:01;101774.44;;;-3.78;73.67
13869;BME280;7004;48.206;16.402;2023-02-10T06:07:28;101774.66;;;-3.70;72.64
13869;BME280;7004;48.206;16.402;2023-02-10T06:09:54;101777.06;;;-3.45;73.04
13869;BME280;7004;48.206;16.402;2023-02-10T06:12:20;101778.47;;;-3.56;73.66
13869;BME280;7004;48.206;16.402;2023-02-10T06:14:46;101785.63;;;-3.47;73.48
13869;BME280;7004;48.206;16.402;2023-02-10T06:17:12;101788.50;;;-3.35;72.89
13869;BME280;7004;48.206;16.402;2023-02-10T06:19:39;101787.44;;;-3.43;73.57
13869;BME280;7004;48.206;16.402;2023-02-10T06:22:07;101798.97;;;-3.31;72.91
13869;BME280;7004;48.206;16.402;2023-02-10T06:24:33;101798.03;;;-3.34;72.77
13869;BME280;7004;48.206;16.402;2023-02-10T06:27:00;101807.38;;;-3.39;73.77
13869;BME280;7004;48.206;16.402;2023-02-10T06:29:26;101799.66;;;-3.69;74.52
13869;BME280;7004;48.206;16.402;2023-02-10T06:31:52;101801.69;;;-3.26;73.27
13869;BME280;7004;48.206;16.402;2023-02-10T06:34:18;101804.03;;;-3.02;71.87
13869;BME280;7004;48.206;16.402;2023-02-10T06:36:45;101807.47;;;-3.03;72.93
13869;BME280;7004;48.206;16.402;2023-02-10T06:39:11;101797.91;;;-3.05;73.24
13869;BME280;7004;48.206;16.402;2023-02-10T06:41:37;101794.53;;;-3.01;72.70
13869;BME280;7004;48.206;16.402;2023-02-10T06:44:03;101803.28;;;-2.98;73.05
13869;BME280;7004;48.206;16.402;2023-02-10T06:46:30;101799.91;;;-2.94;72.95
13869;BME280;7004;48.206;16.402;2023-02-10T06:48:56;101811.56;;;-3.11;72.55
13869;BME280;7004;48.206;16.402;2023-02-10T06:51:22;101811.72;;;-3.05;72.55
13869;BME280;7004;48.206;16.402;2023-02-10T06:53:49;101813.03;;;-2.88;72.34
13869;BME280;7004;48.206;16.402;2023-02-10T06:56:15;101815.03;;;-3.11;73.05
13869;BME280;7004;48.206;16.402;2023-02-10T06:58:41;101818.16;;;-2.89;72.45
13869;BME280;7004;48.206;16.402;2023-02-10T07:01:14;101824.06;;;-2.93;71.85
13869;BME280;7004;48.206;16.402;2023-02-10T07:03:42;101829.56;;;-3.16;74.00
13869;BME280;7004;48.206;16.402;2023-02-10T07:06:09;101833.53;;;-2.95;73.93
13869;BME280;7004;48.206;16.402;2023-02-10T07:08:35;101831.97;;;-2.89;72.71
13869;BME280;7004;48.206;16.402;2023-02-10T07:11:01;101829.94;;;-2.66;72.36
13869;BME280;7004;48.206;16.402;2023-02-10T07:13:28;101832.22;;;-2.78;72.93
13869;BME280;7004;48.206;16.402;2023-02-10T07:15:54;101834.25;;;-2.66;72.82
13869;BME280;7004;48.206;16.402;2023-02-10T07:18:21;101833.84;;;-2.47;71.95
13869;BME280;7004;48.206;16.402;2023-02-10T07:20:47;101838.81;;;-2.56;73.17
13869;BME280;7004;48.206;16.402;2023-02-10T07:23:13;101837.31;;;-2.08;71.84
13869;BME280;7004;48.206;16.402;2023-02-10T07:25:39;101830.41;;;-2.08;71.57
13869;BME280;7004;48.206;16.402;2023-02-10T07:28:05;101828.13;;;-1.94;71.67
13869;BME280;7004;48.206;16.402;2023-02-10T07:30:34;101825.94;;;-1.76;71.35
13869;BME280;7004;48.206;16.402;2023-02-10T07:33:00;101820.84;;;-1.69;70.85
13869;BME280;7004;48.206;16.402;2023-02-10T07:35:26;101829.09;;;-1.46;70.80
13869;BME280;7004;48.206;16.402;2023-02-10T07:37:52;101820.69;;;-1.33;69.90
13869;BME280;7004;48.206;16.402;2023-02-10T07:40:18;101831.03;;;-1.36;69.27
13869;BME280;7004;48.206;16.402;2023-02-10T07:42:44;101825.97;;;-1.28;70.15
13869;BME280;7004;48.206;16.402;2023-02-10T07:45:10;101831.16;;;-1.28;70.22
13869;BME280;7004;48.206;16.402;2023-02-10T07:47:37;101828.97;;;-0.55;67.61
13869;BME280;7004;48.206;16.402;2023-02-10T07:50:03;101826.94;;;-0.17;66.38
13869;BME280;7004;48.206;16.402;2023-02-10T07:52:30;101835.41;;;0.32;63.95
13869;BME280;7004;48.206;16.402;2023-02-10T07:54:56;101828.63;;;0.45;63.50
13869;BME280;7004;48.206;16.402;2023-02-10T07:57:22;101829.97;;;0.92;61.80
13869;BME280;7004;48.206;16.402;2023-02-10T07:59:48;101834.25;;;0.85;62.69
13869;BME280;7004;48.206;16.402;2023-02-10T08:02:14;101832.31;;;1.62;59.35
13869;BME280;7004;48.206;16.402;2023-02-10T08:04:40;101843.00;;;2.03;58.12
13869;BME280;7004;48.206;16.402;2023-02-10T08:07:06;101853.03;;;1.45;58.00
13869;BME280;7004;48.206;16.402;2023-02-10T08:09:33;101848.72;;;1.53;58.44
13869;BME280;7004;48.206;16.402;2023-02-10T08:11:59;101850.81;;;2.00;56.41
13869;BME280;7004;48.206;16.402;2023-02-10T08:14:25;101852.75;;;2.36;54.97
13869;BME280;7004;48.206;16.402;2023-02-10T08:16:51;101854.47;;;2.31;54.58
13869;BME280;7004;48.206;16.402;2023-02-10T08:19:17;101851.19;;;3.11;52.86
13869;BME280;7004;48.206;16.402;2023-02-10T08:21:43;101853.69;;;2.55;54.70
13869;BME280;7004;48.206;16.402;2023-02-10T08:24:09;101851.75;;;2.13;54.67
13869;BME280;7004;48.206;16.402;2023-02-10T08:26:35;101850.31;;;3.05;53.25
13869;BME280;7004;48.206;16.402;2023-02-10T08:29:02;101857.81;;;2.12;55.65
13869;BME280;7004;48.206;16.402;2023-02-10T08:31:28;101849.34;;;2.54;56.24
13869;BME280;7004;48.206;16.402;2023-02-10T08:33:54;101851.22;;;3.43;54.48
13869;BME280;7004;48.206;16.402;2023-02-10T08:36:21;101852.97;;;3.33;53.32
13869;BME280;7004;48.206;16.402;2023-02-10T08:38:48;101850.03;;;2.23;56.35
13869;BME280;7004;48.206;16.402;2023-02-10T08:41:15;101845.84;;;2.58;55.12
13869;BME280;7004;48.206;16.402;2023-02-10T08:43:41;101845.13;;;3.61;52.87
13869;BME280;7004;48.206;16.402;2023-02-10T08:46:08;101842.50;;;3.41;54.34
13869;BME280;7004;48.206;16.402;2023-02-10T08:48:34;101849.44;;;2.91;54.11
13869;BME280;7004;48.206;16.402;2023-02-10T08:51:05;101830.13;;;4.24;50.76
13869;BME280;7004;48.206;16.402;2023-02-10T08:53:32;101828.47;;;4.03;50.12
13869;BME280;7004;48.206;16.402;2023-02-10T08:56:02;101832.53;;;4.75;48.67
13869;BME280;7004;48.206;16.402;2023-02-10T08:58:30;101837.66;;;4.92;48.11
13869;BME280;7004;48.206;16.402;2023-02-10T09:00:56;101837.88;;;4.52;48.06
13869;BME280;7004;48.206;16.402;2023-02-10T09:03:23;101841.25;;;4.74;47.82
13869;BME280;7004;48.206;16.402;2023-02-10T09:05:49;101834.34;;;4.62;47.84
13869;BME280;7004;48.206;16.402;2023-02-10T09:08:16;101838.78;;;4.46;47.47
13869;BME280;7004;48.206;16.402;2023-02-10T09:10:45;101835.41;;;4.13;49.29
13869;BME280;7004;48.206;16.402;2023-02-10T09:13:12;101831.16;;;3.71;49.52
13869;BME280;7004;48.206;16.402;2023-02-10T09:15:41;101840.56;;;4.41;47.75
13869;BME280;7004;48.206;16.402;2023-02-10T09:18:09;101843.06;;;4.61;47.33
13869;BME280;7004;48.206;16.402;2023-02-10T09:20:36;101843.50;;;5.29;46.75
13869;BME280;7004;48.206;16.402;2023-02-10T09:23:03;101851.63;;;4.92;46.86
13869;BME280;7004;48.206;16.402;2023-02-10T09:25:29;101845.66;;;5.84;45.33
13869;BME280;7004;48.206;16.402;2023-02-10T09:27:55;101843.84;;;4.77;46.67
13869;BME280;7004;48.206;16.402;2023-02-10T09:30:27;101846.97;;;5.31;45.61
13869;BME280;7004;48.206;16.402;2023-02-10T09:32:54;101845.56;;;5.94;44.31
13869;BME280;7004;48.206;16.402;2023-02-10T09:35:20;101846.78;;;6.44;43.54
13869;BME280;7004;48.206;16.402;2023-02-10T09:37:47;101842.44;;;7.03;42.23
13869;BME280;7004;48.206;16.402;2023-02-10T09:40:28;101841.06;;;7.35;41.65
13869;BME280;7004;48.206;16.402;2023-02-10T09:49:46;101839.63;;;7.68;41.04
13869;BME280;7004;48.206;16.402;2023-02-10T09:55:18;101830.28;;;7.98;40.88
13869;BME280;7004;48.206;16.402;2023-02-10T09:57:51;101830.25;;;8.46;39.54
13869;BME280;7004;48.206;16.402;2023-02-10T10:00:36;101823.25;;;7.99;41.50
13869;BME280;7004;48.206;16.402;2023-02-10T10:03:10;101829.69;;;7.33;40.82
13869;BME280;7004;48.206;16.402;2023-02-10T10:06:12;101822.59;;;7.87;40.15
13869;BME280;7004;48.206;16.402;2023-02-10T10:14:45;101817.00;;;8.04;39.16
13869;BME280;7004;48.206;16.402;2023-02-10T10:26:13;101799.47;;;8.03;39.37
13869;BME280;7004;48.206;16.402;2023-02-10T10:31:44;101790.78;;;8.43;38.65
13869;BME280;7004;48.206;16.402;2023-02-10T10:34:18;101781.97;;;8.43;38.92
13869;BME280;7004;48.206;16.402;2023-02-10T10:36:53;101785.47;;;8.45;38.85
13869;BME280;7004;48.206;16.402;2023-02-10T10:39:36;101770.75;;;8.33;39.40
13869;BME280;7004;48.206;16.402;2023-02-10T10:42:28;101779.31;;;8.85;38.92
13869;BME280;7004;48.206;16.402;2023-02-10T10:45:06;101783.91;;;8.75;37.72
13869;BME280;7004;48.206;16.402;2023-02-10T10:50:41;101775.78;;;8.45;37.37
13869;BME280;7004;48.206;16.402;2023-02-10T10:53:53;101769.56;;;8.06;39.18
13869;BME280;7004;48.206;16.402;2023-02-10T10:56:37;101773.34;;;8.35;36.82
13869;BME280;7004;48.206;16.402;2023-02-10T10:59:56;101753.44;;;9.35;35.59
13869;BME280;7004;48.206;16.402;2023-02-10T11:02:17;101754.16;;;9.40;36.12
13869;BME280;7004;48.206;16.402;2023-02-10T11:04:44;101764.44;;;8.42;36.07
13869;BME280;7004;48.206;16.402;2023-02-10T11:07:19;101741.41;;;9.89;33.41
13869;BME280;7004;48.206;16.402;2023-02-10T11:09:54;101735.06;;;9.30;34.39
13869;BME280;7004;48.206;16.402;2023-02-10T11:12:33;101735.69;;;9.40;33.79
13869;BME280;7004;48.206;16.402;2023-02-10T11:15:39;101736.28;;;9.17;34.51
13869;BME280;7004;48.206;16.402;2023-02-10T11:18:17;101739.34;;;8.64;34.97
13869;BME280;7004;48.206;16.402;2023-02-10T11:21:04;101720.91;;;9.33;34.47
13869;BME280;7004;48.206;16.402;2023-02-10T11:23:30;101723.16;;;9.48;32.35
13869;BME280;7004;48.206;16.402;2023-02-10T11:26:04;101734.22;;;8.16;33.60
13869;BME280;7004;48.206;16.402;2023-02-10T11:28:33;101735.63;;;8.32;33.32
13869;BME280;7004;48.206;16.402;2023-02-10T11:31:32;101732.84;;;7.98;34.26
13869;BME280;7004;48.206;16.402;2023-02-10T11:34:17;101714.53;;;9.07;33.00
13869;BME280;7004;48.206;16.402;2023-02-10T11:36:46;101703.28;;;9.35;32.09
13869;BME280;7004;48.206;16.402;2023-02-10T11:39:30;101714.00;;;9.29;32.64
13869;BME280;7004;48.206;16.402;2023-02-10T11:41:57;101706.16;;;9.90;31.31
13869;BME280;7004;48.206;16.402;2023-02-10T11:44:32;101707.66;;;8.66;32.00
13869;BME280;7004;48.206;16.402;2023-02-10T11:47:11;101698.34;;;10.44;29.93
13869;BME280;7004;48.206;16.402;2023-02-10T11:49:45;101710.84;;;8.80;31.21
13869;BME280;7004;48.206;16.402;2023-02-10T11:52:11;101709.25;;;9.07;30.88
13869;BME280;7004;48.206;16.402;2023-02-10T11:54:39;101717.66;;;9.23;30.72
13869;BME280;7004;48.206;16.402;2023-02-10T12:00:43;101724.75;;;9.21;31.58
13869;BME280;7004;48.206;16.402;2023-02-10T12:09:37;101711.34;;;8.94;30.83
13869;BME280;7004;48.206;16.402;2023-02-10T12:15:37;101707.09;;;9.23;30.88
13869;BME280;7004;48.206;16.402;2023-02-10T12:18:14;101711.44;;;8.91;30.83
13869;BME280;7004;48.206;16.402;2023-02-10T12:34:48;101713.09;;;8.58;31.02
13869;BME280;7004;48.206;16.402;2023-02-10T12:40:58;101718.72;;;8.43;30.97
13869;BME280;7004;48.206;16.402;2023-02-10T12:52:41;101706.03;;;8.96;30.69
13869;BME280;7004;48.206;16.402;2023-02-10T12:55:27;101708.56;;;7.84;31.35
13869;BME280;7004;48.206;16.402;2023-02-10T12:58:08;101704.75;;;8.38;31.16
13869;BME280;7004;48.206;16.402;2023-02-10T13:00:46;101701.97;;;8.83;30.19
13869;BME280;7004;48.206;16.402;2023-02-10T13:03:35;101702.94;;;9.14;30.23
13869;BME280;7004;48.206;16.402;2023-02-10T13:08:53;101689.00;;;9.09;30.27
13869;BME280;7004;48.206;16.402;2023-02-10T13:14:22;101704.72;;;7.99;31.93
13869;BME280;7004;48.206;16.402;2023-02-10T13:16:59;101688.56;;;8.92;30.42
13869;BME280;7004;48.206;16.402;2023-02-10T13:28:45;101684.59;;;8.74;30.77
13869;BME280;7004;48.206;16.402;2023-02-10T13:31:32;101686.16;;;8.45;31.13
13869;BME280;7004;48.206;16.402;2023-02-10T13:34:35;101683.53;;;9.50;30.40
13869;BME280;7004;48.206;16.402;2023-02-10T13:37:38;101697.66;;;8.02;31.21
13869;BME280;7004;48.206;16.402;2023-02-10T13:43:00;101694.88;;;8.08;31.33
13869;BME280;7004;48.206;16.402;2023-02-10T13:45:33;101690.03;;;8.68;30.68
13869;BME280;7004;48.206;16.402;2023-02-10T13:48:14;101690.41;;;9.23;30.31
13869;BME280;7004;48.206;16.402;2023-02-10T13:50:49;101687.72;;;9.24;30.39
13869;BME280;7004;48.206;16.402;2023-02-10T13:56:28;101694.09;;;8.03;31.36
13869;BME280;7004;48.206;16.402;2023-02-10T14:01:49;101701.06;;;7.65;32.79
13869;BME280;7004;48.206;16.402;2023-02-10T14:04:41;101706.84;;;7.38;32.05
13869;BME280;7004;48.206;16.402;2023-02-10T14:07:37;101698.81;;;7.89;31.87
13869;BME280;7004;48.206;16.402;2023-02-10T14:10:30;101706.16;;;8.15;31.34
13869;BME280;7004;48.206;16.402;2023-02-10T14:13:05;101708.38;;;7.00;33.56
13869;BME280;7004;48.206;16.402;2023-02-10T14:16:07;101710.66;;;7.66;32.19
13869;BME280;7004;48.206;16.402;2023-02-10T14:19:04;101707.38;;;7.07;32.94
13869;BME280;7004;48.206;16.402;2023-02-10T14:21:43;101708.56;;;7.39;32.88
13869;BME280;7004;48.206;16.402;2023-02-10T14:24:15;101708.41;;;6.97;33.63
13869;BME280;7004;48.206;16.402;2023-02-10T14:26:44;101710.97;;;7.95;32.53
13869;BME280;7004;48.206;16.402;2023-02-10T14:29:19;101711.31;;;7.33;33.73
13869;BME280;7004;48.206;16.402;2023-02-10T14:31:52;101720.13;;;7.75;33.20
13869;BME280;7004;48.206;16.402;2023-02-10T14:34:32;101725.63;;;7.64;33.55
13869;BME280;7004;48.206;16.402;2023-02-10T14:37:20;101727.00;;;7.37;34.27
13869;BME280;7004;48.206;16.402;2023-02-10T14:39:54;101733.13;;;7.38;34.04
13869;BME280;7004;48.206;16.402;2023-02-10T14:42:22;101732.03;;;7.00;35.05
13869;BME280;7004;48.206;16.402;2023-02-10T14:44:56;101737.41;;;6.94;35.00
13869;BME280;7004;48.206;16.402;2023-02-10T14:47:37;101730.13;;;7.10;35.36
13869;BME280;7004;48.206;16.402;2023-02-10T14:50:20;101730.22;;;6.49;36.41
13869;BME280;7004;48.206;16.402;2023-02-10T14:52:48;101732.16;;;7.88;35.50
13869;BME280;7004;48.206;16.402;2023-02-10T14:55:26;101724.06;;;9.47;44.32
13869;BME280;7004;48.206;16.402;2023-02-10T14:58:02;101732.34;;;8.23;39.58
13869;BME280;7004;48.206;16.402;2023-02-10T15:00:30;101735.97;;;8.17;43.65
13869;BME280;7004;48.206;16.402;2023-02-10T15:03:00;101725.25;;;7.38;36.50
13869;BME280;7004;48.206;16.402;2023-02-10T15:05:39;101730.63;;;6.79;37.35
13869;BME280;7004;48.206;16.402;2023-02-10T15:08:17;101733.06;;;6.91;37.21
13869;BME280;7004;48.206;16.402;2023-02-10T15:10:50;101732.09;;;6.41;36.94
13869;BME280;7004;48.206;16.402;2023-02-10T15:13:43;101736.44;;;6.44;37.06